Portada
METAR-TAF:

METAR-TAF

Aeroports :

Aeroport de Menorca

Menorca, Espanya

latitud: 39-52N, longitud: 004-14E, altitud: 87 m

Observació

L'informe es va fer fa 22 minuts, a les 04:00 UTC
Vent 13 kt del Est, variant entre Est/Nord-Est i Est/Sud-Est
Temperatura 15°C
Humitat 77%
Pressió 1016 hPa
Visibilitat 10 km o més
sense núvols per sota de 1500 mi sense presència de cumulonimbus.

METAR: LEMH 190400Z 08013KT 060V120 CAVOK 15/11 Q1016

Hora: 06:22 (04:22 UTC)

Pronòstic

L'informe es va fer fa 2 hores i 22 minuts, a les 02:00 UTC
Pronòstic vàlid del 19 a les 03 UTC al 20 a les 03 UTC
Vent 10 kt del Est
Visibilitat 10 km o més
Escasses núvols a una alçada de 1500 ft
Temporalment
l' 19 a les 03 UTC al 20 a les 03 UTC
Vent 20 kt del Est amb ràfegues de 30 kt

TAF: LEMH 190200Z 1903/2003 09010KT 9999 FEW015 TX20/1912Z TN12/1906Z TEMPO 1903/2003 09020G30KT

Observacions i pronòstics meteorològics de més de 4000 aeroports (METAR i TAF).

Les estacions disponibles són els punts grocs i vermells al mapa.

Posi el ratolí al punt desitjat per veure el nom de l'estació.

Feu clic per veure les observacions i els pronòstics meteorològics.

Per canviar el mapa: feu clic els botons verds amb una creu de color negre per apropar; al botó verd amb un guió per allunyar la imatge; o en les fletxes verdes per a mapes adjacents.


METAR-TAF: